createdAt,value
2018-10-21T00:01:17.053Z,38.90
2018-10-21T00:03:55.815Z,37.90
2018-10-21T00:06:36.635Z,40.20
2018-10-21T00:09:18.875Z,39.87
2018-10-21T00:12:01.212Z,38.00
2018-10-21T00:14:43.178Z,39.10
2018-10-21T00:17:26.517Z,39.77
2018-10-21T00:20:09.532Z,39.50
2018-10-21T00:22:52.494Z,39.73
2018-10-21T00:25:34.380Z,39.00
2018-10-21T00:28:17.618Z,39.57
2018-10-21T00:30:59.152Z,38.87
2018-10-21T00:33:37.182Z,39.60
2018-10-21T00:36:14.891Z,39.07
2018-10-21T00:38:52.417Z,36.97
2018-10-21T00:41:30.999Z,36.07
2018-10-21T00:44:08.634Z,36.23
2018-10-21T00:46:46.234Z,37.67
2018-10-21T00:49:24.195Z,38.77
2018-10-21T00:52:02.475Z,38.43
2018-10-21T00:54:40.837Z,37.93
2018-10-21T00:57:19.538Z,38.60
2018-10-21T00:59:57.673Z,40.53
2018-10-21T01:02:36.433Z,37.77
2018-10-21T01:05:15.073Z,39.37
2018-10-21T01:07:53.934Z,35.50
2018-10-21T01:10:34.571Z,34.63
2018-10-21T01:13:12.459Z,35.47
2018-10-21T01:15:50.327Z,34.33
2018-10-21T01:18:28.474Z,34.93
2018-10-21T01:21:06.333Z,33.57
2018-10-21T01:23:44.453Z,32.23
2018-10-21T01:26:24.770Z,33.77
2018-10-21T01:29:09.915Z,32.50
2018-10-21T01:31:47.272Z,34.47
2018-10-21T01:34:25.142Z,35.07
2018-10-21T01:37:02.840Z,34.60
2018-10-21T01:40:44.114Z,37.93
2018-10-21T01:43:36.697Z,35.37
2018-10-21T01:46:15.036Z,36.33
2018-10-21T01:48:57.850Z,37.33
2018-10-21T01:51:42.719Z,38.30
2018-10-21T01:54:28.656Z,39.33
2018-10-21T01:57:11.406Z,40.07
2018-10-21T01:59:51.212Z,40.47
2018-10-21T02:02:30.396Z,41.17
2018-10-21T02:05:08.115Z,41.50
2018-10-21T02:07:46.258Z,42.77
2018-10-21T02:10:25.473Z,42.20
2018-10-21T02:13:03.388Z,42.00
2018-10-21T02:15:41.255Z,42.00
2018-10-21T02:18:19.439Z,41.47
2018-10-21T02:20:57.912Z,42.63
2018-10-21T02:23:36.956Z,43.33
2018-10-21T02:26:14.975Z,45.07
2018-10-21T02:28:53.944Z,45.57
2018-10-21T02:31:31.955Z,44.40
2018-10-21T02:34:10.158Z,44.27
2018-10-21T02:36:48.532Z,46.90
2018-10-21T02:39:26.473Z,46.97
2018-10-21T02:42:05.591Z,44.60
2018-10-21T02:44:48.012Z,43.43
2018-10-21T02:47:25.397Z,47.03
2018-10-21T02:50:04.180Z,45.03
2018-10-21T02:52:43.277Z,43.13
2018-10-21T02:55:21.552Z,42.77
2018-10-21T02:57:59.838Z,44.23
2018-10-21T03:00:38.527Z,48.90
2018-10-21T03:03:17.802Z,47.40
2018-10-21T03:05:56.020Z,47.70
2018-10-21T03:08:33.416Z,50.93
2018-10-21T03:11:11.895Z,50.80
2018-10-21T03:13:53.977Z,51.63
2018-10-21T03:16:31.762Z,48.50
2018-10-21T03:19:09.938Z,47.80
2018-10-21T03:21:47.359Z,47.67
2018-10-21T03:24:25.594Z,41.60
2018-10-21T03:27:03.072Z,44.60
2018-10-21T03:29:41.612Z,42.63
2018-10-21T03:32:18.995Z,46.77
2018-10-21T03:34:57.155Z,47.87
2018-10-21T03:37:34.604Z,45.33
2018-10-21T03:40:11.653Z,47.70
2018-10-21T03:42:49.662Z,44.87
2018-10-21T03:45:29.436Z,48.73
2018-10-21T03:48:07.598Z,44.13
2018-10-21T03:50:45.521Z,45.30
2018-10-21T03:53:23.211Z,45.97
2018-10-21T03:56:01.520Z,51.97
2018-10-21T03:58:39.493Z,46.77
2018-10-21T04:01:17.942Z,46.00
2018-10-21T04:03:56.830Z,45.93
2018-10-21T04:06:35.095Z,51.07
2018-10-21T04:09:13.374Z,48.50
2018-10-21T04:11:51.852Z,48.67
2018-10-21T04:14:31.030Z,48.90
2018-10-21T04:17:10.234Z,48.63
2018-10-21T04:19:51.513Z,47.87
2018-10-21T04:22:30.055Z,50.23
2018-10-21T04:25:09.318Z,43.77
2018-10-21T04:27:46.733Z,42.33
2018-10-21T04:30:27.313Z,44.17
2018-10-21T04:33:08.638Z,41.20
2018-10-21T04:35:47.900Z,38.43
2018-10-21T04:38:37.778Z,39.40
2018-10-21T04:41:15.733Z,37.30
2018-10-21T04:43:54.473Z,36.43
2018-10-21T04:46:31.862Z,36.93
2018-10-21T04:49:10.854Z,33.87
2018-10-21T04:51:47.436Z,34.37
2018-10-21T04:54:26.559Z,34.33
2018-10-21T04:57:10.840Z,33.63
2018-10-21T04:59:51.156Z,34.10
2018-10-21T05:02:30.778Z,35.83
2018-10-21T05:05:08.752Z,34.83
2018-10-21T05:07:48.431Z,36.37
2018-10-21T05:10:34.779Z,34.13
2018-10-21T05:13:14.195Z,36.20
2018-10-21T05:15:53.908Z,37.57
2018-10-21T05:18:31.874Z,37.23
2018-10-21T05:21:10.577Z,38.57
2018-10-21T05:23:48.736Z,38.77
2018-10-21T05:26:26.380Z,38.27
2018-10-21T05:29:05.299Z,38.90
2018-10-21T05:31:42.072Z,36.93
2018-10-21T05:34:20.154Z,38.33
2018-10-21T05:37:02.359Z,37.87
2018-10-21T05:39:42.532Z,38.47
2018-10-21T05:42:21.295Z,38.40
2018-10-21T05:44:58.995Z,36.77
2018-10-21T05:47:37.003Z,36.90
2018-10-21T05:50:16.782Z,37.27
2018-10-21T05:52:56.894Z,37.37
2018-10-21T05:55:37.736Z,38.43
2018-10-21T05:58:15.553Z,38.50
2018-10-21T06:00:54.373Z,38.87
2018-10-21T06:03:34.256Z,39.27
2018-10-21T06:06:11.479Z,37.53
2018-10-21T06:08:51.777Z,38.93
2018-10-21T06:11:31.017Z,37.40
2018-10-21T06:14:10.757Z,40.57
2018-10-21T06:16:50.713Z,41.07
2018-10-21T06:19:36.420Z,40.47
2018-10-21T06:22:18.502Z,41.43
2018-10-21T06:24:58.370Z,39.83
2018-10-21T06:27:41.324Z,41.00
2018-10-21T06:30:18.117Z,39.50
2018-10-21T06:32:54.617Z,38.93
2018-10-21T06:35:34.198Z,38.47
2018-10-21T06:38:13.617Z,39.97
2018-10-21T06:40:51.882Z,39.00
2018-10-21T06:43:36.014Z,39.87
2018-10-21T06:46:12.580Z,40.77
2018-10-21T06:48:50.023Z,40.10
2018-10-21T06:51:34.136Z,40.30
2018-10-21T06:54:12.490Z,39.87
2018-10-21T06:56:50.030Z,40.87
2018-10-21T06:59:30.617Z,40.53
2018-10-21T07:02:06.758Z,41.50
2018-10-21T07:04:45.219Z,42.77
2018-10-21T07:07:25.390Z,43.93
2018-10-21T07:10:03.413Z,45.63
2018-10-21T07:12:41.474Z,47.70
2018-10-21T07:15:18.328Z,50.43
2018-10-21T07:18:00.156Z,48.43
2018-10-21T07:20:40.574Z,44.73
2018-10-21T07:23:17.994Z,44.10
2018-10-21T07:25:54.978Z,44.37
2018-10-21T07:28:35.209Z,45.60
2018-10-21T07:31:12.216Z,45.50
2018-10-21T07:33:54.384Z,42.20
2018-10-21T07:36:30.616Z,44.27
2018-10-21T07:39:07.795Z,44.00
2018-10-21T07:41:46.721Z,47.00
2018-10-21T07:44:26.918Z,47.30
2018-10-21T07:47:08.585Z,48.50
2018-10-21T07:49:52.059Z,49.33
2018-10-21T07:52:33.657Z,53.03
2018-10-21T07:55:10.546Z,49.73
2018-10-21T07:57:48.501Z,51.03
2018-10-21T08:00:31.601Z,49.83
2018-10-21T08:03:11.981Z,52.73
2018-10-21T08:06:03.346Z,53.67
2018-10-21T08:08:40.919Z,52.20
2018-10-21T08:11:20.160Z,53.67
2018-10-21T08:13:59.357Z,57.97
2018-10-21T08:16:40.898Z,58.03
2018-10-21T08:19:23.222Z,55.40
2018-10-21T08:22:02.068Z,54.27
2018-10-21T08:24:40.597Z,60.93
2018-10-21T08:27:19.780Z,61.90
2018-10-21T08:29:56.453Z,60.47
2018-10-21T08:32:35.473Z,51.80
2018-10-21T08:35:13.938Z,54.33
2018-10-21T08:37:52.499Z,55.30
2018-10-21T08:40:29.474Z,95.37
2018-10-21T08:43:08.874Z,114.47
2018-10-21T08:45:49.852Z,97.10
2018-10-21T08:48:28.417Z,39.67
2018-10-21T08:51:06.056Z,37.90
2018-10-21T08:53:44.997Z,111.70
2018-10-21T08:56:22.637Z,188.10
2018-10-21T08:59:00.238Z,47.87
2018-10-21T09:01:37.416Z,111.53
2018-10-21T09:04:18.590Z,93.53
2018-10-21T09:06:54.932Z,57.83
2018-10-21T09:09:33.433Z,159.37
2018-10-21T09:12:10.493Z,306.40
2018-10-21T09:14:50.240Z,411.07
2018-10-21T09:17:32.275Z,76.30
2018-10-21T09:20:13.473Z,652.90
2018-10-21T09:22:52.996Z,268.10
2018-10-21T09:25:36.057Z,137.03
2018-10-21T09:28:16.394Z,105.00
2018-10-21T09:30:52.835Z,45.90
2018-10-21T09:33:29.557Z,35.57
2018-10-21T09:36:06.372Z,39.40
2018-10-21T09:38:44.592Z,116.67
2018-10-21T09:41:22.503Z,165.73
2018-10-21T09:44:02.058Z,126.27
2018-10-21T09:46:38.139Z,59.43
2018-10-21T09:49:15.627Z,32.07
2018-10-21T09:51:53.154Z,44.67
2018-10-21T09:54:30.241Z,83.27
2018-10-21T09:57:06.778Z,50.40
2018-10-21T09:59:43.397Z,50.93
2018-10-21T10:02:24.191Z,41.13
2018-10-21T10:05:00.229Z,29.40
2018-10-21T10:07:38.594Z,184.60
2018-10-21T10:10:17.012Z,41.33
2018-10-21T10:12:53.080Z,59.83
2018-10-21T10:15:31.693Z,67.33
2018-10-21T10:18:09.179Z,74.17
2018-10-21T10:20:46.495Z,94.23
2018-10-21T10:23:23.934Z,80.33
2018-10-21T10:26:00.492Z,99.80
2018-10-21T10:28:36.859Z,68.50
2018-10-21T10:31:15.507Z,66.67
2018-10-21T10:33:57.691Z,55.77
2018-10-21T10:36:39.437Z,45.57
2018-10-21T10:39:29.137Z,36.73
2018-10-21T10:42:14.083Z,34.10
2018-10-21T10:44:53.709Z,30.10
2018-10-21T10:47:32.494Z,32.53
2018-10-21T10:50:09.734Z,25.77
2018-10-21T10:52:55.585Z,25.07
2018-10-21T10:55:36.217Z,25.77
2018-10-21T10:58:16.291Z,26.93
2018-10-21T11:00:56.462Z,29.33
2018-10-21T11:03:36.494Z,33.00
2018-10-21T11:06:15.311Z,32.30
2018-10-21T11:08:58.234Z,31.63
2018-10-21T11:11:37.035Z,31.23
2018-10-21T11:14:15.836Z,34.33
2018-10-21T11:16:56.098Z,29.17
2018-10-21T11:19:33.517Z,29.27
2018-10-21T11:22:12.820Z,36.73
2018-10-21T11:24:51.098Z,59.53
2018-10-21T11:27:27.579Z,45.00
2018-10-21T11:30:06.652Z,54.90
2018-10-21T11:32:45.459Z,43.37
2018-10-21T11:35:22.815Z,32.00
2018-10-21T11:38:09.640Z,47.20
2018-10-21T11:40:49.235Z,26.43
2018-10-21T11:43:29.559Z,28.53
2018-10-21T11:46:09.213Z,31.07
2018-10-21T11:48:50.770Z,23.07
2018-10-21T11:51:31.512Z,48.43
2018-10-21T11:54:11.680Z,24.30
2018-10-21T11:56:54.226Z,67.83
2018-10-21T11:59:31.817Z,23.37
2018-10-21T12:02:15.197Z,29.27
2018-10-21T12:04:55.751Z,25.73
2018-10-21T12:07:37.773Z,23.17
2018-10-21T12:10:17.302Z,23.20
2018-10-21T12:12:58.000Z,23.13
2018-10-21T12:15:34.663Z,25.57
2018-10-21T12:18:15.955Z,27.07
2018-10-21T12:20:57.459Z,28.50
2018-10-21T12:23:35.415Z,28.37
2018-10-21T12:26:15.954Z,29.53
2018-10-21T12:28:53.706Z,34.03
2018-10-21T12:31:33.840Z,33.97
2018-10-21T12:34:17.833Z,32.47
2018-10-21T12:36:54.959Z,32.67
2018-10-21T12:39:33.834Z,31.17
2018-10-21T12:42:15.638Z,29.13
2018-10-21T12:44:54.184Z,26.70
2018-10-21T12:47:30.731Z,24.93
2018-10-21T12:50:08.916Z,22.77
2018-10-21T12:52:45.951Z,22.33
2018-10-21T12:55:24.590Z,35.37
2018-10-21T12:58:02.871Z,21.97
2018-10-21T13:00:43.314Z,28.80
2018-10-21T13:03:22.872Z,20.90
2018-10-21T13:06:01.078Z,20.43
2018-10-21T13:08:38.232Z,21.73
2018-10-21T13:11:14.589Z,21.17
2018-10-21T13:13:54.884Z,26.00
2018-10-21T13:16:38.075Z,22.13
2018-10-21T13:19:16.918Z,22.90
2018-10-21T13:21:58.404Z,23.27
2018-10-21T13:24:35.710Z,25.30
2018-10-21T13:27:16.175Z,26.73
2018-10-21T13:29:57.294Z,26.00
2018-10-21T13:32:35.417Z,27.27
2018-10-21T13:35:13.299Z,26.70
2018-10-21T13:37:52.176Z,23.43
2018-10-21T13:40:32.670Z,30.90
2018-10-21T13:43:11.464Z,34.20
2018-10-21T13:45:52.733Z,34.77
2018-10-21T13:48:34.137Z,31.30
2018-10-21T13:51:12.877Z,28.77
2018-10-21T13:53:55.331Z,27.20
2018-10-21T13:56:32.231Z,30.57
2018-10-21T13:59:10.815Z,30.43
2018-10-21T14:01:48.556Z,24.77
2018-10-21T14:04:25.178Z,28.50
2018-10-21T14:07:03.096Z,30.40
2018-10-21T14:09:40.574Z,27.23
2018-10-21T14:12:19.653Z,25.23
2018-10-21T14:14:58.072Z,23.70
2018-10-21T14:17:37.237Z,25.43
2018-10-21T14:20:14.974Z,23.97
2018-10-21T14:22:54.113Z,24.20
2018-10-21T14:25:29.930Z,22.70
2018-10-21T14:28:11.851Z,22.07
2018-10-21T14:30:48.471Z,21.67
2018-10-21T14:33:25.213Z,20.93
2018-10-21T14:36:05.720Z,21.40
2018-10-21T14:38:47.815Z,21.03
2018-10-21T14:41:24.849Z,19.90
2018-10-21T14:44:01.617Z,21.00
2018-10-21T14:46:38.875Z,20.23
2018-10-21T14:49:16.679Z,21.03
2018-10-21T14:51:55.617Z,21.70
2018-10-21T14:54:36.878Z,19.60
2018-10-21T14:57:21.918Z,20.60
2018-10-21T15:00:00.338Z,23.23
2018-10-21T15:02:37.776Z,20.90
2018-10-21T15:05:17.116Z,20.37
2018-10-21T15:07:55.949Z,20.20
2018-10-21T15:10:34.355Z,19.73
2018-10-21T15:13:12.232Z,19.23
2018-10-21T15:15:49.511Z,20.20
2018-10-21T15:18:29.176Z,21.90
2018-10-21T15:21:07.178Z,23.47
2018-10-21T15:23:45.299Z,25.17
2018-10-21T15:26:22.875Z,52.10
2018-10-21T15:29:03.092Z,45.90
2018-10-21T15:31:42.357Z,38.87
2018-10-21T15:34:20.273Z,32.47
2018-10-21T15:36:59.258Z,30.73
2018-10-21T15:39:39.463Z,23.47
2018-10-21T15:42:17.935Z,21.10
2018-10-21T15:44:54.160Z,30.10
2018-10-21T15:47:34.361Z,43.77
2018-10-21T15:50:17.930Z,61.00
2018-10-21T15:52:55.137Z,60.67
2018-10-21T15:55:34.011Z,75.53
2018-10-21T15:58:10.227Z,61.53
2018-10-21T16:00:47.950Z,63.27
2018-10-21T16:03:26.535Z,80.70
2018-10-21T16:06:08.262Z,66.37
2018-10-21T16:08:50.636Z,45.87
2018-10-21T16:11:33.164Z,30.07
2018-10-21T16:14:14.296Z,31.63
2018-10-21T16:16:50.869Z,29.57
2018-10-21T16:19:31.351Z,28.50
2018-10-21T16:22:18.601Z,26.50
2018-10-21T16:24:58.916Z,24.67
2018-10-21T16:27:36.821Z,28.33
2018-10-21T16:30:16.957Z,23.93
2018-10-21T16:32:56.150Z,24.63
2018-10-21T16:35:33.296Z,22.57
2018-10-21T16:38:10.928Z,22.40
2018-10-21T16:40:50.256Z,22.30
2018-10-21T16:43:28.834Z,23.97
2018-10-21T16:46:06.216Z,25.53
2018-10-21T16:48:47.652Z,27.87
2018-10-21T16:51:27.091Z,28.60
2018-10-21T16:54:07.755Z,32.60
2018-10-21T16:56:46.780Z,38.63
2018-10-21T16:59:27.609Z,45.73
2018-10-21T17:02:06.771Z,72.97
2018-10-21T17:04:43.241Z,62.30
2018-10-21T17:07:19.728Z,86.40
2018-10-21T17:09:56.449Z,62.60
2018-10-21T17:12:35.055Z,47.10
2018-10-21T17:15:15.994Z,35.23
2018-10-21T17:17:54.102Z,31.13
2018-10-21T17:20:33.593Z,31.83
2018-10-21T17:23:12.578Z,31.87
2018-10-21T17:25:52.917Z,30.27
2018-10-21T17:28:31.893Z,27.63
2018-10-21T17:31:08.867Z,29.33
2018-10-21T17:33:52.616Z,38.60
2018-10-21T17:36:32.775Z,45.30
2018-10-21T17:39:20.413Z,49.10
2018-10-21T17:42:02.859Z,83.00
2018-10-21T17:44:47.912Z,156.30
2018-10-21T17:47:29.470Z,170.07
2018-10-21T17:50:07.330Z,164.63
2018-10-21T17:52:49.555Z,187.43
2018-10-21T17:55:29.272Z,174.83
2018-10-21T17:58:06.146Z,156.13
2018-10-21T18:00:45.837Z,185.40
2018-10-21T18:03:22.781Z,164.13
2018-10-21T18:06:02.422Z,152.10
2018-10-21T18:08:44.053Z,140.47
2018-10-21T18:11:20.952Z,129.63
2018-10-21T18:14:03.545Z,104.90
2018-10-21T18:16:42.609Z,85.77
2018-10-21T18:19:23.278Z,92.77
2018-10-21T18:22:03.027Z,76.60
2018-10-21T18:24:46.659Z,80.03
2018-10-21T18:27:25.392Z,49.43
2018-10-21T18:30:02.751Z,55.80
2018-10-21T18:32:40.354Z,45.43
2018-10-21T18:35:20.815Z,45.30
2018-10-21T18:37:57.473Z,46.47
2018-10-21T18:40:39.050Z,40.13
2018-10-21T18:43:15.470Z,43.67
2018-10-21T18:45:54.161Z,44.27
2018-10-21T18:48:36.790Z,47.50
2018-10-21T18:51:15.675Z,51.63
2018-10-21T18:53:56.260Z,47.23
2018-10-21T18:56:36.254Z,52.30
2018-10-21T18:59:12.556Z,73.73
2018-10-21T19:01:49.754Z,95.20
2018-10-21T19:04:28.991Z,98.33
2018-10-21T19:07:09.874Z,112.13
2018-10-21T19:09:46.572Z,126.37
2018-10-21T19:12:23.769Z,85.00
2018-10-21T19:15:02.802Z,103.93
2018-10-21T19:17:39.399Z,81.07
2018-10-21T19:20:21.972Z,67.47
2018-10-21T19:22:59.400Z,56.83
2018-10-21T19:25:38.651Z,44.33
2018-10-21T19:28:17.515Z,37.67
2018-10-21T19:30:56.233Z,34.10
2018-10-21T19:33:38.880Z,30.63
2018-10-21T19:36:15.210Z,31.50
2018-10-21T19:38:53.356Z,30.80
2018-10-21T19:41:32.930Z,34.73
2018-10-21T19:44:13.375Z,35.73
2018-10-21T19:46:52.630Z,37.77
2018-10-21T19:49:29.755Z,37.87
2018-10-21T19:52:09.047Z,47.67
2018-10-21T19:54:45.791Z,44.57
2018-10-21T19:57:28.079Z,42.40
2018-10-21T20:00:08.517Z,39.90
2018-10-21T20:02:59.912Z,37.27
2018-10-21T20:05:39.475Z,36.40
2018-10-21T20:08:17.835Z,36.03
2018-10-21T20:10:56.112Z,36.43
2018-10-21T20:13:34.392Z,35.23
2018-10-21T20:16:12.857Z,33.70
2018-10-21T20:18:51.374Z,33.80
2018-10-21T20:21:28.003Z,33.00
2018-10-21T20:24:05.856Z,33.40
2018-10-21T20:26:44.841Z,33.00
2018-10-21T20:29:22.415Z,34.00
2018-10-21T20:32:01.078Z,37.57
2018-10-21T20:34:40.513Z,40.27
2018-10-21T20:37:18.189Z,43.67
2018-10-21T20:39:58.613Z,49.67
2018-10-21T20:42:38.633Z,56.60
2018-10-21T20:45:16.901Z,63.10
2018-10-21T20:47:56.215Z,76.87
2018-10-21T20:50:33.214Z,81.33
2018-10-21T20:53:10.755Z,93.17
2018-10-21T20:55:46.874Z,101.20
2018-10-21T20:58:27.942Z,106.97
2018-10-21T21:01:06.041Z,103.03
2018-10-21T21:03:43.816Z,111.57
2018-10-21T21:06:23.270Z,114.57
2018-10-21T21:09:04.117Z,119.97
2018-10-21T21:11:42.279Z,131.07
2018-10-21T21:14:20.936Z,127.33
2018-10-21T21:17:00.418Z,141.23
2018-10-21T21:19:39.658Z,171.53
2018-10-21T21:22:17.703Z,154.47
2018-10-21T21:24:57.215Z,152.97
2018-10-21T21:27:35.994Z,155.90
2018-10-21T21:30:14.837Z,156.63
2018-10-21T21:32:52.688Z,138.20
2018-10-21T21:35:31.491Z,160.63
2018-10-21T21:38:09.636Z,166.63
2018-10-21T21:40:47.536Z,165.17
2018-10-21T21:43:27.794Z,157.23
2018-10-21T21:46:07.882Z,174.03
2018-10-21T21:48:46.976Z,159.90
2018-10-21T21:51:25.055Z,156.33
2018-10-21T21:54:03.311Z,154.37
2018-10-21T21:56:41.621Z,143.70
2018-10-21T21:59:20.159Z,153.77
2018-10-21T22:01:56.122Z,147.97
2018-10-21T22:04:35.242Z,142.27
2018-10-21T22:07:13.444Z,134.00
2018-10-21T22:09:50.489Z,130.93
2018-10-21T22:12:28.569Z,121.20
2018-10-21T22:15:06.975Z,119.40
2018-10-21T22:17:45.393Z,116.00
2018-10-21T22:20:23.590Z,106.03
2018-10-21T22:23:01.376Z,106.60
2018-10-21T22:25:39.734Z,108.53
2018-10-21T22:28:18.421Z,100.77
2018-10-21T22:30:56.445Z,116.37
2018-10-21T22:33:34.620Z,113.33
2018-10-21T22:36:13.217Z,120.20
2018-10-21T22:38:51.284Z,108.90
2018-10-21T22:41:29.027Z,106.33
2018-10-21T22:44:07.252Z,98.07
2018-10-21T22:46:45.486Z,90.87
2018-10-21T22:49:24.011Z,94.87
2018-10-21T22:52:02.179Z,85.77
2018-10-21T22:54:39.992Z,66.80
2018-10-21T22:57:20.288Z,72.87
2018-10-21T23:00:00.081Z,70.60
2018-10-21T23:02:38.399Z,68.43
2018-10-21T23:05:16.168Z,73.47
2018-10-21T23:07:53.526Z,87.00
2018-10-21T23:10:32.881Z,97.93
2018-10-21T23:13:10.585Z,74.40
2018-10-21T23:15:49.217Z,68.03
2018-10-21T23:18:28.352Z,64.53
2018-10-21T23:21:06.345Z,63.30
2018-10-21T23:23:44.477Z,73.40
2018-10-21T23:26:23.139Z,80.67
2018-10-21T23:29:01.906Z,71.90
2018-10-21T23:31:40.358Z,54.13
2018-10-21T23:34:18.249Z,57.50
2018-10-21T23:36:56.739Z,65.50
2018-10-21T23:39:34.963Z,94.53
2018-10-21T23:42:13.928Z,59.17
2018-10-21T23:44:53.561Z,57.57
2018-10-21T23:47:31.457Z,55.23
2018-10-21T23:50:11.558Z,140.60
2018-10-21T23:52:49.800Z,69.00
2018-10-21T23:55:27.617Z,70.43
2018-10-21T23:58:08.395Z,93.27
